Time;durP1;ratioP1;P1;durP2;ratioP2;P2;SDS_P1;SDS_P2;PMS_P1;PMS_P2;Temp;Humidity;BMP_temperature;BMP_pressure;BME280_temperature;BME280_humidity;BME280_pressure;Samples;Min_cycle;Max_cycle;Signal;HPM_P1;HPM_P2
2021/09/22 00:02:09;;;;;;;12.75;8.15;;;;;;;6.25;94.28;99771.38;5051637;28;20024;-66
2021/09/22 00:04:35;;;;;;;14.73;7.93;;;;;;;6.13;93.81;99760.69;5060831;28;20017;-66
2021/09/22 00:07:00;;;;;;;14.05;8.50;;;;;;;6.33;93.83;99768.00;5047403;28;20021;-66
2021/09/22 00:09:26;;;;;;;14.25;8.18;;;;;;;6.34;93.34;99767.16;5048014;28;20045;-66
2021/09/22 00:11:52;;;;;;;13.85;8.23;;;;;;;6.28;93.63;99756.63;5050207;28;20438;-66
2021/09/22 00:14:17;;;;;;;12.13;7.68;;;;;;;6.39;94.08;99759.38;5056556;28;20022;-66
2021/09/22 00:16:43;;;;;;;15.52;8.05;;;;;;;6.35;93.93;99762.81;5048975;28;20283;-66
2021/09/22 00:19:08;;;;;;;13.48;7.68;;;;;;;6.29;93.54;99757.47;5058991;28;20022;-66
2021/09/22 00:21:34;;;;;;;12.45;7.63;;;;;;;6.35;94.02;99763.69;5047146;28;20244;-66
2021/09/22 00:23:59;;;;;;;12.30;7.88;;;;;;;6.32;93.54;99765.38;5053513;28;20020;-66
2021/09/22 00:26:25;;;;;;;11.48;7.07;;;;;;;6.38;93.63;99765.47;5054622;28;20044;-66
2021/09/22 00:28:50;;;;;;;11.73;6.95;;;;;;;6.34;93.41;99764.56;5061434;28;20033;-66
2021/09/22 00:31:16;;;;;;;16.13;8.55;;;;;;;6.06;92.97;99769.31;5059306;28;20020;-66
2021/09/22 00:33:42;;;;;;;12.20;7.63;;;;;;;6.05;93.46;99772.78;5047117;28;20049;-66
2021/09/22 00:36:07;;;;;;;13.75;7.90;;;;;;;6.13;93.71;99760.69;5046863;28;20076;-66
2021/09/22 00:38:33;;;;;;;14.73;7.90;;;;;;;6.12;93.79;99758.97;5059620;28;20048;-66
2021/09/22 00:40:58;;;;;;;13.05;7.72;;;;;;;6.18;93.53;99754.72;5052884;28;20029;-66
2021/09/22 00:43:24;;;;;;;12.32;7.30;;;;;;;6.11;93.04;99755.44;5060099;28;20013;-66
2021/09/22 00:45:49;;;;;;;14.50;7.20;;;;;;;5.97;93.00;99756.09;5052996;28;20017;-66
2021/09/22 00:48:15;;;;;;;12.90;7.50;;;;;;;6.06;93.24;99743.16;5060852;28;20016;-66
2021/09/22 00:50:40;;;;;;;10.30;6.22;;;;;;;6.07;93.65;99744.91;5051574;28;20047;-66
2021/09/22 00:53:06;;;;;;;9.73;7.13;;;;;;;6.09;93.56;99748.44;5049525;28;20025;-66
2021/09/22 00:55:31;;;;;;;8.75;5.90;;;;;;;6.10;93.18;99750.19;5053223;28;20024;-66
2021/09/22 00:57:59;;;;;;;11.40;7.00;;;;;;;5.98;93.64;99744.78;5053575;28;20268;-66
2021/09/22 01:00:27;;;;;;;8.52;5.70;;;;;;;5.94;93.49;99748.19;5059078;28;20024;-66
2021/09/22 01:02:53;;;;;;;9.68;6.35;;;;;;;5.92;93.25;99756.00;5052476;28;20020;-66
2021/09/22 01:05:25;;;;;;;9.05;6.20;;;;;;;5.60;94.19;99756.28;5047205;28;20033;-66
2021/09/22 01:07:51;;;;;;;12.85;7.22;;;;;;;5.62;94.51;99762.41;5047691;28;20017;-66
2021/09/22 01:10:17;;;;;;;9.45;6.55;;;;;;;5.71;94.65;99755.63;5057827;28;20317;-66
2021/09/22 01:12:44;;;;;;;9.85;5.72;;;;;;;5.77;94.28;99762.69;5046502;28;20033;-66
2021/09/22 01:15:10;;;;;;;11.38;6.60;;;;;;;5.62;94.05;99751.94;5050691;28;20028;-66
2021/09/22 01:17:36;;;;;;;10.07;5.82;;;;;;;5.61;94.00;99761.53;5044602;28;20028;-66
2021/09/22 01:20:07;;;;;;;8.88;6.05;;;;;;;5.48;93.81;99759.56;5044497;28;20021;-66
2021/09/22 01:22:34;;;;;;;8.33;5.87;;;;;;;5.42;94.20;99758.56;5044576;28;20327;-66
2021/09/22 01:24:59;;;;;;;8.73;5.90;;;;;;;5.44;94.90;99759.47;5044821;28;20033;-66
2021/09/22 01:27:26;;;;;;;9.55;6.15;;;;;;;5.53;94.34;99764.84;5057133;28;20039;-66
2021/09/22 01:29:52;;;;;;;9.73;6.50;;;;;;;5.60;94.13;99756.28;5060988;28;20064;-66
2021/09/22 01:32:19;;;;;;;13.15;7.43;;;;;;;5.59;94.00;99754.50;5060904;28;20025;-66
2021/09/22 01:34:45;;;;;;;12.40;7.10;;;;;;;5.49;94.19;99758.69;5053686;28;20020;-66
2021/09/22 01:37:11;;;;;;;10.43;6.40;;;;;;;5.41;93.81;99759.41;5055277;28;20029;-66
2021/09/22 01:39:39;;;;;;;9.43;5.75;;;;;;;5.46;94.40;99760.34;5054499;28;20029;-66
2021/09/22 01:42:05;;;;;;;9.98;6.32;;;;;;;5.51;94.40;99756.97;5049552;28;20275;-66
2021/09/22 01:44:33;;;;;;;8.48;5.43;;;;;;;5.63;93.85;99751.97;5057718;28;20013;-66
2021/09/22 01:46:59;;;;;;;10.23;5.75;;;;;;;5.69;93.28;99751.19;5054410;28;20029;-66
2021/09/22 01:49:24;;;;;;;9.80;6.00;;;;;;;5.66;93.19;99749.41;5055583;28;20027;-66
2021/09/22 01:51:59;;;;;;;8.90;5.50;;;;;;;5.63;93.54;99762.44;5053845;28;20036;-66
2021/09/22 01:54:24;;;;;;;9.68;5.63;;;;;;;5.52;93.44;99757.88;5050309;28;20016;-66
2021/09/22 01:56:50;;;;;;;8.18;4.95;;;;;;;5.53;94.08;99755.28;5050774;28;20340;-66
2021/09/22 01:59:16;;;;;;;9.18;5.55;;;;;;;5.50;94.25;99762.16;5054944;28;20024;-66
2021/09/22 02:01:41;;;;;;;7.63;5.15;;;;;;;5.46;94.55;99762.97;5059939;28;20276;-66
2021/09/22 02:04:07;;;;;;;9.52;6.22;;;;;;;5.38;93.94;99760.22;5050651;28;20021;-66
2021/09/22 02:06:32;;;;;;;8.02;5.35;;;;;;;5.44;93.66;99764.69;5048400;28;20044;-66
2021/09/22 02:08:58;;;;;;;8.88;5.78;;;;;;;5.45;93.73;99761.22;5058579;28;20025;-66
2021/09/22 02:11:23;;;;;;;10.77;6.40;;;;;;;5.51;94.07;99756.97;5053475;28;20017;-66
2021/09/22 02:13:48;;;;;;;9.50;6.28;;;;;;;5.58;93.40;99748.44;5058448;28;20065;-66
2021/09/22 02:16:14;;;;;;;13.93;6.32;;;;;;;5.48;92.70;99750.84;5050912;28;20022;-66
2021/09/22 02:18:40;;;;;;;8.02;5.53;;;;;;;5.31;93.04;99755.72;5054020;28;20022;-66
2021/09/22 02:21:09;;;;;;;13.10;6.88;;;;;;;5.37;93.49;99741.91;5059427;28;20036;-66
2021/09/22 02:23:36;;;;;;;9.40;6.30;;;;;;;5.41;93.53;99748.97;5049701;28;20212;-66
2021/09/22 02:26:02;;;;;;;9.75;6.18;;;;;;;5.26;93.80;99744.34;5054499;28;20020;-66
2021/09/22 02:28:27;;;;;;;8.05;5.47;;;;;;;5.37;93.57;99752.34;5055769;28;20087;-66
2021/09/22 02:30:52;;;;;;;9.30;5.68;;;;;;;5.21;93.54;99750.28;5050456;28;20251;-66
2021/09/22 02:33:18;;;;;;;8.65;4.85;;;;;;;5.31;93.85;99744.44;5052729;28;20026;-66
2021/09/22 02:35:43;;;;;;;9.60;6.35;;;;;;;5.01;92.71;99738.59;5060874;28;20029;-66
2021/09/22 02:38:09;;;;;;;10.10;6.20;;;;;;;5.09;94.27;99742.25;5063870;28;20031;-66
2021/09/22 02:40:34;;;;;;;9.60;6.50;;;;;;;5.23;93.55;99738.16;5051352;28;20092;-66
2021/09/22 02:42:59;;;;;;;10.25;5.85;;;;;;;5.20;93.81;99731.16;5059893;28;20024;-66
2021/09/22 02:45:25;;;;;;;10.35;6.25;;;;;;;5.13;94.00;99720.56;5063212;28;20035;-66
2021/09/22 02:47:50;;;;;;;10.23;6.43;;;;;;;5.11;93.96;99730.09;5055918;28;20037;-66
2021/09/22 02:50:18;;;;;;;12.07;6.18;;;;;;;5.19;93.57;99723.31;5061932;28;20083;-66
2021/09/22 02:52:45;;;;;;;9.10;5.53;;;;;;;5.22;93.45;99720.75;5056921;28;20048;-66
2021/09/22 02:55:10;;;;;;;8.90;6.00;;;;;;;5.26;93.56;99733.00;5055991;28;20251;-66
2021/09/22 02:57:36;;;;;;;11.18;6.45;;;;;;;5.26;93.08;99733.00;5063684;28;20076;-66
2021/09/22 03:00:04;;;;;;;9.55;6.10;;;;;;;5.19;93.89;99731.13;5055285;28;20232;-66
2021/09/22 03:02:30;;;;;;;10.13;6.10;;;;;;;5.11;93.51;99736.22;5050923;28;20048;-66
2021/09/22 03:04:55;;;;;;;9.57;5.60;;;;;;;5.07;94.03;99738.72;5055681;28;20013;-66
2021/09/22 03:07:20;;;;;;;8.68;5.72;;;;;;;4.94;93.47;99734.09;5053306;28;20087;-66
2021/09/22 03:09:46;;;;;;;10.10;5.82;;;;;;;5.06;93.64;99739.59;5057119;28;20040;-66
2021/09/22 03:12:11;;;;;;;10.25;6.35;;;;;;;5.00;93.86;99744.66;5063010;28;20044;-66
2021/09/22 03:14:37;;;;;;;14.50;6.65;;;;;;;4.86;93.91;99740.88;5060202;28;20021;-66
2021/09/22 03:17:02;;;;;;;12.48;6.63;;;;;;;4.85;93.95;99733.91;5054748;28;20087;-66
2021/09/22 03:19:28;;;;;;;11.68;6.78;;;;;;;4.97;94.08;99728.94;5060475;28;20035;-66
2021/09/22 03:21:53;;;;;;;11.07;6.72;;;;;;;5.02;93.84;99727.28;5056311;28;20080;-66
2021/09/22 03:24:18;;;;;;;9.35;4.72;;;;;;;4.96;93.50;99728.06;5052315;28;20020;-66
2021/09/22 03:26:44;;;;;;;8.15;5.18;;;;;;;4.89;93.93;99720.09;5057263;28;20021;-66
2021/09/22 03:29:09;;;;;;;7.53;5.18;;;;;;;4.84;93.85;99721.72;5058303;28;20059;-66
2021/09/22 03:31:35;;;;;;;9.43;5.68;;;;;;;4.80;93.91;99715.56;5058574;28;20021;-66
2021/09/22 03:34:00;;;;;;;8.02;5.20;;;;;;;4.96;93.45;99711.53;5053869;28;20024;-66
2021/09/22 03:36:26;;;;;;;8.55;5.43;;;;;;;4.96;93.67;99711.53;5052830;28;20018;-66
2021/09/22 03:38:51;;;;;;;8.23;5.63;;;;;;;4.79;93.49;99708.59;5054431;28;20064;-66
2021/09/22 03:41:16;;;;;;;9.30;5.25;;;;;;;4.72;93.75;99711.94;5057458;28;20024;-66
2021/09/22 03:43:42;;;;;;;9.63;6.03;;;;;;;4.79;93.75;99718.13;5059742;28;20024;-66
2021/09/22 03:46:07;;;;;;;9.52;6.28;;;;;;;4.86;93.73;99720.00;5062226;28;20075;-66
2021/09/22 03:48:33;;;;;;;10.43;5.82;;;;;;;4.90;93.34;99716.66;5055860;28;20241;-66
2021/09/22 03:50:59;;;;;;;11.40;6.85;;;;;;;4.88;93.95;99721.84;5050404;28;20052;-66
2021/09/22 03:53:24;;;;;;;11.05;5.97;;;;;;;4.90;93.18;99720.13;5052705;28;20083;-66
2021/09/22 03:55:50;;;;;;;12.20;6.10;;;;;;;4.85;93.94;99726.09;5056212;28;20021;-66
2021/09/22 03:58:16;;;;;;;12.27;5.97;;;;;;;4.74;93.55;99727.63;5062792;28;20032;-66
2021/09/22 04:00:41;;;;;;;9.98;6.10;;;;;;;4.86;93.54;99730.44;5057695;28;20342;-66
2021/09/22 04:03:07;;;;;;;9.63;5.50;;;;;;;4.83;92.66;99730.38;5053154;28;20009;-66
2021/09/22 04:05:32;;;;;;;8.93;5.63;;;;;;;4.70;93.34;99728.38;5062701;28;20157;-66
2021/09/22 04:07:58;;;;;;;9.52;5.93;;;;;;;4.64;93.04;99728.25;5052558;28;20131;-66
2021/09/22 04:10:24;;;;;;;11.48;6.07;;;;;;;4.66;93.91;99726.56;5063739;28;20021;-66
2021/09/22 04:12:49;;;;;;;15.95;6.32;;;;;;;4.59;93.43;99724.66;5062867;28;20041;-66
2021/09/22 04:15:15;;;;;;;8.32;5.28;;;;;;;4.70;93.70;99733.59;5058768;28;20059;-66
2021/09/22 04:17:40;;;;;;;9.23;4.72;;;;;;;4.73;93.20;99728.44;5060885;28;20084;-66
2021/09/22 04:20:07;;;;;;;7.78;5.18;;;;;;;4.74;92.79;99730.22;5057295;28;20316;-66
2021/09/22 04:22:34;;;;;;;7.90;5.40;;;;;;;4.69;93.07;99724.91;5057843;28;20343;-66
2021/09/22 04:25:00;;;;;;;9.10;5.88;;;;;;;4.61;93.28;99734.28;5051314;28;20022;-66
2021/09/22 04:27:25;;;;;;;8.23;5.03;;;;;;;4.45;93.35;99727.88;5049786;28;20254;-66
2021/09/22 04:29:51;;;;;;;7.85;5.07;;;;;;;4.44;94.47;99723.47;5063204;28;20066;-66
2021/09/22 04:32:17;;;;;;;7.68;4.13;;;;;;;4.35;94.09;99720.69;5049164;28;20064;-66
2021/09/22 04:34:42;;;;;;;7.47;4.88;;;;;;;4.44;94.64;99718.25;5045759;28;20017;-66
2021/09/22 04:37:09;;;;;;;7.03;4.75;;;;;;;4.48;94.93;99725.31;5050353;28;20029;-66
2021/09/22 04:39:34;;;;;;;10.23;5.03;;;;;;;4.50;95.24;99715.78;5044929;28;20333;-66
2021/09/22 04:41:59;;;;;;;7.85;5.00;;;;;;;4.53;94.20;99718.47;5044823;28;20032;-66
2021/09/22 04:44:25;;;;;;;9.93;5.20;;;;;;;4.55;93.38;99725.47;5044717;28;20155;-66
2021/09/22 04:46:50;;;;;;;12.50;5.28;;;;;;;4.41;93.64;99731.25;5045071;28;20052;-66
2021/09/22 04:49:16;;;;;;;8.85;5.38;;;;;;;4.25;94.12;99734.34;5044721;28;20324;-66
2021/09/22 04:51:41;;;;;;;9.65;5.95;;;;;;;4.13;95.27;99739.28;5044654;28;20127;-66
2021/09/22 04:54:07;;;;;;;8.98;5.68;;;;;;;4.27;95.63;99737.88;5044616;28;20028;-66
2021/09/22 04:56:32;;;;;;;10.38;6.00;;;;;;;4.28;94.98;99739.63;5044773;28;20049;-66
2021/09/22 04:58:58;;;;;;;9.73;5.90;;;;;;;4.35;95.54;99735.44;5044559;28;20029;-66
2021/09/22 05:01:23;;;;;;;9.18;5.68;;;;;;;4.45;94.33;99738.28;5044522;28;20090;-66
2021/09/22 05:03:48;;;;;;;9.60;5.60;;;;;;;4.39;94.54;99743.38;5044303;28;20091;-66
2021/09/22 05:06:14;;;;;;;8.20;5.18;;;;;;;4.42;93.45;99740.81;5044432;28;20051;-66
2021/09/22 05:08:40;;;;;;;8.95;5.40;;;;;;;4.40;94.16;99737.28;5044356;28;20033;-66
2021/09/22 05:11:05;;;;;;;11.70;5.40;;;;;;;4.43;94.47;99737.38;5044459;28;20025;-66
2021/09/22 05:13:31;;;;;;;11.95;6.72;;;;;;;4.53;93.86;99736.72;5044089;28;20225;-66
2021/09/22 05:15:56;;;;;;;9.38;6.07;;;;;;;4.43;93.70;99734.75;5044223;28;20021;-66
2021/09/22 05:18:21;;;;;;;15.20;6.03;;;;;;;4.35;93.48;99736.31;5044214;28;20044;-66
2021/09/22 05:20:47;;;;;;;8.25;5.18;;;;;;;4.49;93.67;99734.91;5044039;28;20025;-66
2021/09/22 05:23:12;;;;;;;12.00;6.07;;;;;;;4.46;94.59;99737.44;5044067;28;20063;-66
2021/09/22 05:25:38;;;;;;;9.07;5.47;;;;;;;4.43;94.25;99734.75;5044196;28;20025;-66
2021/09/22 05:28:03;;;;;;;7.63;4.88;;;;;;;4.47;93.91;99752.22;5043977;28;20293;-66
2021/09/22 05:30:30;;;;;;;9.70;5.88;;;;;;;4.36;93.64;99743.28;5043958;28;20052;-66
2021/09/22 05:32:56;;;;;;;8.55;5.20;;;;;;;4.50;94.08;99741.84;5043934;28;20072;-66
2021/09/22 05:35:21;;;;;;;10.18;5.10;;;;;;;4.40;93.40;99739.91;5043919;28;20025;-66
2021/09/22 05:37:46;;;;;;;11.32;5.82;;;;;;;4.45;93.85;99740.00;5043841;28;20021;-66
2021/09/22 05:40:12;;;;;;;9.02;5.35;;;;;;;4.62;93.61;99743.84;5043880;28;20025;-66
2021/09/22 05:42:38;;;;;;;7.90;5.10;;;;;;;4.62;93.90;99745.59;5043791;28;20048;-66
2021/09/22 05:45:05;;;;;;;9.10;5.43;;;;;;;4.72;94.10;99744.94;5043850;28;20083;-66
2021/09/22 05:47:30;;;;;;;9.45;5.45;;;;;;;4.72;94.30;99750.16;5047339;28;20029;-66
2021/09/22 05:49:55;;;;;;;9.45;5.28;;;;;;;4.79;94.00;99749.44;5047844;28;20029;-66
2021/09/22 05:52:21;;;;;;;9.82;5.57;;;;;;;5.00;93.59;99749.88;5047876;28;20032;-66
2021/09/22 05:54:49;;;;;;;8.63;5.35;;;;;;;5.11;92.58;99748.38;5047616;28;20025;-66
2021/09/22 05:57:14;;;;;;;8.27;4.78;;;;;;;5.23;92.46;99743.38;5047732;28;20100;-66
2021/09/22 05:59:44;;;;;;;11.85;4.95;;;;;;;5.27;92.11;99742.59;5047621;28;20069;-66
2021/09/22 06:02:09;;;;;;;9.57;5.05;;;;;;;5.43;91.64;99742.03;5047533;28;20032;-66
2021/09/22 06:04:35;;;;;;;7.00;4.70;;;;;;;5.51;91.36;99740.44;5047389;28;20025;-66
2021/09/22 06:07:00;;;;;;;10.25;5.30;;;;;;;5.57;90.78;99730.13;5047420;28;20026;-66
2021/09/22 06:09:26;;;;;;;7.28;4.95;;;;;;;5.65;90.15;99720.66;5047503;28;20322;-66
2021/09/22 06:11:51;;;;;;;9.20;5.10;;;;;;;5.77;89.82;99728.72;5046032;28;20037;-66
2021/09/22 06:14:17;;;;;;;8.52;5.38;;;;;;;5.99;89.80;99726.53;5047229;28;20052;-66
2021/09/22 06:16:43;;;;;;;8.82;5.03;;;;;;;6.18;89.37;99719.84;5047279;28;20221;-66
2021/09/22 06:19:09;;;;;;;8.10;5.28;;;;;;;6.36;88.18;99725.34;5047192;28;20062;-66
2021/09/22 06:21:36;;;;;;;9.57;5.68;;;;;;;6.55;88.28;99719.50;5047176;28;20025;-66
2021/09/22 06:24:01;;;;;;;11.30;4.82;;;;;;;6.75;87.18;99717.16;5047154;28;20052;-66
2021/09/22 06:26:27;;;;;;;10.45;5.90;;;;;;;6.71;86.68;99720.59;5047056;28;20021;-66
2021/09/22 06:28:52;;;;;;;9.90;5.55;;;;;;;6.75;88.14;99723.28;5047019;28;20036;-66
2021/09/22 06:31:18;;;;;;;15.77;6.03;;;;;;;6.95;86.55;99727.03;5046988;28;20265;-66
2021/09/22 06:33:44;;;;;;;7.85;5.03;;;;;;;7.16;86.21;99734.25;5046851;28;20017;-66
2021/09/22 06:36:09;;;;;;;8.15;5.53;;;;;;;7.37;85.65;99731.88;5046863;28;20029;-66
2021/09/22 06:38:36;;;;;;;8.80;5.63;;;;;;;7.59;84.59;99734.72;5046833;28;20109;-66
2021/09/22 06:41:02;;;;;;;9.38;5.93;;;;;;;7.88;83.90;99730.63;5047051;28;20029;-66
2021/09/22 06:43:27;;;;;;;7.80;5.18;;;;;;;7.97;84.02;99737.69;5046719;28;20022;-66
2021/09/22 06:45:53;;;;;;;8.82;4.80;;;;;;;8.22;83.81;99739.66;5046693;28;20120;-66
2021/09/22 06:48:18;;;;;;;9.88;5.30;;;;;;;8.34;83.83;99727.53;5046655;28;20022;-66
2021/09/22 06:50:44;;;;;;;6.82;4.70;;;;;;;8.73;82.90;99733.03;5046614;28;20032;-66
2021/09/22 06:53:10;;;;;;;7.90;4.50;;;;;;;9.24;81.04;99734.13;5046502;28;20202;-66
2021/09/22 06:55:35;;;;;;;8.25;5.07;;;;;;;9.68;79.67;99727.22;5046545;28;20028;-66
2021/09/22 06:58:01;;;;;;;8.15;5.00;;;;;;;9.95;78.79;99732.50;5044542;28;20021;-66
2021/09/22 07:00:27;;;;;;;7.05;4.80;;;;;;;10.49;77.79;99727.25;5046602;28;20032;-66
2021/09/22 07:02:52;;;;;;;8.45;4.95;;;;;;;10.80;76.80;99723.66;5046499;28;20022;-66
2021/09/22 07:05:18;;;;;;;8.38;5.25;;;;;;;11.16;76.39;99728.78;5046672;28;20021;-66
2021/09/22 07:07:46;;;;;;;10.20;5.30;;;;;;;11.21;76.41;99720.88;5046612;28;20025;-66
2021/09/22 07:10:16;;;;;;;8.20;4.80;;;;;;;11.75;74.53;99724.13;5046599;28;20057;-66
2021/09/22 07:12:41;;;;;;;6.20;4.43;;;;;;;12.23;72.79;99718.44;5046417;28;20273;-66
2021/09/22 07:15:08;;;;;;;10.88;4.82;;;;;;;12.62;73.00;99722.47;5046653;28;20080;-66
2021/09/22 07:17:33;;;;;;;11.10;5.32;;;;;;;12.99;71.97;99727.38;5046675;28;20064;-66
2021/09/22 07:19:58;;;;;;;8.98;5.20;;;;;;;12.84;73.01;99731.91;5046727;28;20025;-66
2021/09/22 07:22:24;;;;;;;10.88;6.25;;;;;;;13.13;72.35;99734.28;5046785;28;20024;-66
2021/09/22 07:24:49;;;;;;;9.93;5.47;;;;;;;13.77;71.41;99729.88;5046658;28;20028;-66
2021/09/22 07:27:15;;;;;;;9.55;5.53;;;;;;;14.03;72.59;99735.63;5046829;28;20021;-66
2021/09/22 07:29:40;;;;;;;8.10;5.38;;;;;;;14.74;69.53;99736.19;5047035;28;20313;-66
2021/09/22 07:32:07;;;;;;;9.18;6.03;;;;;;;14.63;70.81;99737.28;5047306;28;20021;-66
2021/09/22 07:34:33;;;;;;;10.27;6.07;;;;;;;15.33;68.47;99737.66;5047203;28;20216;-66
2021/09/22 07:36:59;;;;;;;10.15;6.20;;;;;;;15.47;66.94;99735.59;5047391;28;20029;-66
2021/09/22 07:39:24;;;;;;;11.10;5.68;;;;;;;16.16;64.35;99741.97;5048094;28;20083;-67
2021/09/22 07:41:49;;;;;;;10.85;6.38;;;;;;;16.69;64.44;99736.22;5047621;28;20051;-67
2021/09/22 07:44:15;;;;;;;10.65;5.68;;;;;;;17.17;60.84;99734.88;5047717;28;20044;-67
2021/09/22 07:46:40;;;;;;;13.27;5.95;;;;;;;17.39;62.76;99720.94;5046672;28;20029;-67
2021/09/22 07:49:06;;;;;;;9.38;5.57;;;;;;;18.14;60.59;99724.81;5047615;28;20029;-67
2021/09/22 07:51:31;;;;;;;9.45;5.63;;;;;;;18.28;58.02;99729.66;5047307;28;20025;-67
2021/09/22 07:53:56;;;;;;;7.85;5.28;;;;;;;18.78;58.54;99732.41;5047714;28;20021;-67
2021/09/22 07:56:22;;;;;;;11.65;5.13;;;;;;;19.36;54.73;99725.88;5047440;28;20091;-67
2021/09/22 07:58:47;;;;;;;7.57;4.60;;;;;;;19.04;55.77;99726.16;5047711;28;20025;-67
2021/09/22 08:01:13;;;;;;;8.63;5.35;;;;;;;19.06;55.39;99726.97;5047212;28;20202;-67
2021/09/22 08:03:40;;;;;;;8.38;4.78;;;;;;;20.00;53.72;99730.47;5047236;28;20251;-65
2021/09/22 08:06:06;;;;;;;8.77;4.75;;;;;;;19.99;52.69;99731.41;5047040;28;20026;-65
2021/09/22 08:08:31;;;;;;;9.57;5.15;;;;;;;19.84;52.27;99740.00;5046930;28;20254;-65
2021/09/22 08:10:57;;;;;;;7.90;5.45;;;;;;;20.20;52.40;99733.25;5047346;28;20032;-65
2021/09/22 08:13:23;;;;;;;9.90;4.97;;;;;;;20.00;51.77;99729.59;5046780;28;20074;-64
2021/09/22 08:15:48;;;;;;;6.72;4.53;;;;;;;20.31;51.05;99739.03;5047042;28;20340;-64
2021/09/22 08:18:14;;;;;;;11.50;5.50;;;;;;;20.16;50.71;99737.00;5046807;28;20029;-64
2021/09/22 08:20:39;;;;;;;9.02;5.20;;;;;;;20.61;47.81;99740.44;5047341;28;20025;-64
2021/09/22 08:23:05;;;;;;;11.95;5.25;;;;;;;20.32;49.55;99735.44;5046665;28;20028;-64
2021/09/22 08:25:30;;;;;;;15.98;5.47;;;;;;;20.35;48.67;99747.81;5046854;28;20309;-64
2021/09/22 08:27:56;;;;;;;10.07;5.63;;;;;;;20.80;48.42;99738.72;5046637;28;20032;-64
2021/09/22 08:30:21;;;;;;;11.85;6.05;;;;;;;21.24;46.59;99751.03;5046683;28;20036;-64
2021/09/22 08:32:47;;;;;;;9.30;5.20;;;;;;;21.51;47.08;99748.06;5046795;28;20026;-64
2021/09/22 08:35:13;;;;;;;12.52;5.78;;;;;;;21.33;46.57;99746.22;5046327;28;20029;-64
2021/09/22 08:37:38;;;;;;;11.70;5.82;;;;;;;20.72;46.10;99743.50;5046352;28;20029;-64
2021/09/22 08:40:06;;;;;;;8.18;4.70;;;;;;;20.90;46.42;99758.78;5046355;28;20025;-64
2021/09/22 08:42:31;;;;;;;8.88;5.68;;;;;;;20.77;46.45;99760.25;5045985;28;20032;-64
2021/09/22 08:44:58;;;;;;;19.08;5.53;;;;;;;21.33;44.71;99766.69;5046480;28;20017;-64
2021/09/22 08:47:24;;;;;;;9.88;5.43;;;;;;;21.06;45.53;99765.25;5046140;28;20225;-64
2021/09/22 08:49:51;;;;;;;8.40;5.85;;;;;;;20.47;46.17;99764.19;5046053;28;20025;-64
2021/09/22 08:52:17;;;;;;;9.23;5.55;;;;;;;21.00;44.81;99756.59;5045892;28;20097;-64
2021/09/22 08:54:43;;;;;;;15.38;5.60;;;;;;;20.65;45.08;99767.91;5045927;28;20244;-64
2021/09/22 08:57:08;;;;;;;11.43;5.40;;;;;;;21.30;46.00;99753.44;5046062;28;20021;-64
2021/09/22 08:59:34;;;;;;;10.32;5.47;;;;;;;20.89;44.55;99767.72;5046207;28;20056;-64
2021/09/22 09:02:14;;;;;;;9.88;5.68;;;;;;;20.74;44.67;99763.06;5046438;28;20029;-64
2021/09/22 09:04:42;;;;;;;11.27;5.38;;;;;;;20.61;45.78;99763.63;5046183;28;20013;-64
2021/09/22 09:07:08;;;;;;;11.57;5.82;;;;;;;19.93;45.95;99771.72;5046593;28;20048;-64
2021/09/22 09:09:44;;;;;;;11.30;5.65;;;;;;;19.49;46.75;99758.34;5046053;28;20021;-64
2021/09/22 09:12:17;;;;;;;9.32;4.88;;;;;;;19.81;46.13;99761.53;5045709;28;20056;-64
2021/09/22 09:14:50;;;;;;;12.00;5.25;;;;;;;19.72;45.99;99761.88;5045668;28;20025;-64
2021/09/22 09:17:20;;;;;;;7.43;4.72;;;;;;;19.95;44.99;99758.31;5046037;28;20017;-64
2021/09/22 09:19:45;;;;;;;8.15;5.45;;;;;;;19.66;46.59;99756.78;5045696;28;20044;-64
2021/09/22 09:22:11;;;;;;;12.43;5.53;;;;;;;20.13;45.92;99769.19;5044374;28;20017;-64
2021/09/22 09:24:47;;;;;;;8.82;4.93;;;;;;;20.21;45.51;99772.41;5045936;28;20028;-64
2021/09/22 09:27:18;;;;;;;9.48;5.10;;;;;;;20.56;44.29;99758.47;5045581;28;20308;-64
2021/09/22 09:29:44;;;;;;;10.45;4.75;;;;;;;20.79;45.14;99757.53;5045332;28;20025;-64
2021/09/22 09:32:18;;;;;;;9.80;4.68;;;;;;;21.16;43.89;99761.22;5045210;28;20040;-65
2021/09/22 09:34:57;;;;;;;12.43;5.13;;;;;;;20.80;44.24;99759.25;5045156;28;20321;-65
2021/09/22 09:37:41;;;;;;;7.55;5.10;;;;;;;21.01;44.44;99756.53;5045346;28;20088;-65
2021/09/22 09:40:19;;;;;;;6.95;4.60;;;;;;;20.41;44.34;99745.72;5045168;28;20025;-65
2021/09/22 09:42:46;;;;;;;7.55;4.47;;;;;;;20.65;45.94;99750.06;5045175;28;20022;-65
2021/09/22 09:45:13;;;;;;;7.43;4.55;;;;;;;20.20;45.95;99749.28;5044958;28;20043;-64
2021/09/22 09:47:41;;;;;;;8.40;4.18;;;;;;;20.29;46.77;99748.94;5045370;28;20047;-64
2021/09/22 09:50:22;;;;;;;12.23;5.38;;;;;;;21.00;45.10;99738.75;5045205;28;20214;-64
2021/09/22 09:53:00;;;;;;;13.50;4.97;;;;;;;20.80;45.46;99751.22;5044894;28;20063;-64
2021/09/22 09:55:27;;;;;;;13.40;4.80;;;;;;;20.97;44.94;99733.53;5045200;28;20088;-64
2021/09/22 09:57:54;;;;;;;8.02;3.95;;;;;;;20.77;46.31;99741.53;5044926;28;20273;-64
2021/09/22 10:00:39;;;;;;;6.85;4.13;;;;;;;20.62;46.80;99726.13;5045162;28;20084;-64
2021/09/22 10:03:12;;;;;;;5.57;3.53;;;;;;;20.71;46.19;99744.47;5045004;28;20025;-64
2021/09/22 10:05:38;;;;;;;11.65;4.35;;;;;;;20.92;45.78;99730.13;5044773;28;20021;-64
2021/09/22 10:08:04;;;;;;;7.38;4.28;;;;;;;21.15;46.16;99727.38;5044881;28;20029;-64
2021/09/22 10:10:29;;;;;;;7.65;3.92;;;;;;;21.05;45.70;99736.75;5043380;28;20030;-64
2021/09/22 10:12:56;;;;;;;9.32;4.90;;;;;;;21.17;45.13;99738.84;5044303;28;20045;-64
2021/09/22 10:15:23;;;;;;;6.80;4.20;;;;;;;21.35;43.86;99729.13;5044814;28;20028;-64
2021/09/22 10:17:50;;;;;;;9.23;4.25;;;;;;;21.55;43.98;99725.53;5044752;28;20021;-64
2021/09/22 10:20:18;;;;;;;10.63;4.72;;;;;;;21.28;45.00;99728.56;5044893;28;20025;-64
2021/09/22 10:22:44;;;;;;;6.78;3.85;;;;;;;20.57;46.68;99716.56;5044576;28;20036;-64
2021/09/22 10:25:10;;;;;;;6.40;4.03;;;;;;;20.81;45.95;99721.72;5045006;28;20013;-64
2021/09/22 10:27:37;;;;;;;7.43;3.63;;;;;;;21.64;45.27;99714.41;5044950;28;20021;-64
2021/09/22 10:30:05;;;;;;;5.57;3.80;;;;;;;20.68;46.24;99709.81;5045018;28;20088;-64
2021/09/22 10:32:44;;;;;;;5.95;3.30;;;;;;;20.65;46.35;99703.69;5044183;28;20101;-64
2021/09/22 10:35:24;;;;;;;7.30;3.55;;;;;;;20.55;46.17;99700.56;5048334;28;20120;-64
2021/09/22 10:37:54;;;;;;;8.73;3.85;;;;;;;20.53;45.71;99710.44;5048412;28;20029;-64
2021/09/22 10:40:53;;;;;;;5.85;3.33;;;;;;;20.72;45.64;99706.06;5048381;28;20116;-64
2021/09/22 10:43:23;;;;;;;7.50;4.20;;;;;;;20.54;45.41;99697.97;5048438;28;20017;-64
2021/09/22 10:46:10;;;;;;;5.55;3.28;;;;;;;20.62;46.38;99709.19;5048178;28;20089;-64
2021/09/22 10:48:41;;;;;;;8.48;3.60;;;;;;;20.78;46.65;99689.72;5048104;28;20123;-64
2021/09/22 10:51:10;;;;;;;11.38;3.92;;;;;;;20.25;46.76;99691.13;5048303;28;20026;-64
2021/09/22 10:53:38;;;;;;;8.45;3.50;;;;;;;20.89;44.86;99698.16;5048376;28;20049;-64
2021/09/22 10:56:26;;;;;;;10.23;3.40;;;;;;;20.63;46.20;99701.09;5048296;28;20224;-64
2021/09/22 10:58:53;;;;;;;5.80;3.70;;;;;;;20.43;46.19;99692.16;5048222;28;20021;-64
2021/09/22 11:01:40;;;;;;;5.25;3.38;;;;;;;20.35;45.46;99687.13;5048172;28;20419;-64
2021/09/22 11:04:09;;;;;;;5.68;3.17;;;;;;;20.38;46.73;99689.69;5048198;28;20025;-64
2021/09/22 11:09:18;;;;;;;6.57;2.97;;;;;;;20.63;45.99;99695.75;5048237;28;20059;-64
2021/09/22 11:11:55;;;;;;;7.38;2.97;;;;;;;20.26;46.65;99695.56;5047843;28;20076;-64
2021/09/22 11:14:27;;;;;;;6.53;3.10;;;;;;;19.86;46.76;99689.19;5047820;28;20025;-64
2021/09/22 11:17:00;;;;;;;5.25;2.60;;;;;;;20.23;46.16;99679.66;5048556;28;20036;-64
2021/09/22 11:19:27;;;;;;;4.93;2.83;;;;;;;19.80;47.28;99660.91;5048204;28;20026;-64
2021/09/22 11:21:53;;;;;;;5.18;2.67;;;;;;;19.63;47.85;99660.72;5048146;28;20318;-64
2021/09/22 11:24:22;;;;;;;5.88;2.65;;;;;;;19.96;47.32;99675.41;5048051;28;20292;-64
2021/09/22 11:26:53;;;;;;;4.30;2.67;;;;;;;20.70;47.17;99661.56;5047549;28;20084;-64
2021/09/22 11:29:36;;;;;;;6.28;3.05;;;;;;;20.57;46.35;99663.91;5046919;28;20051;-64
2021/09/22 11:32:27;;;;;;;5.50;2.65;;;;;;;20.27;47.51;99659.88;5047585;28;20031;-64
2021/09/22 11:35:11;;;;;;;4.57;2.80;;;;;;;19.92;47.70;99654.19;5047141;28;20064;-64
2021/09/22 11:37:39;;;;;;;9.10;3.10;;;;;;;19.95;48.51;99657.63;5047836;28;20230;-64
2021/09/22 11:40:09;;;;;;;4.43;2.97;;;;;;;19.56;49.24;99658.34;5046366;28;20028;-64